sensor_id;sensor_type;location;lat;lon;timestamp;temperature;humidity
12460;DHT22;6295;49.452;8.466;2023-03-09T07:14:49;9.30;99.90
12460;DHT22;6295;49.452;8.466;2023-03-09T07:18:54;9.30;99.90
12460;DHT22;6295;49.452;8.466;2023-03-09T07:22:56;9.30;99.90
12460;DHT22;6295;49.452;8.466;2023-03-09T07:31:08;9.40;99.90
12460;DHT22;6295;49.452;8.466;2023-03-09T07:35:10;9.40;99.90
12460;DHT22;6295;49.452;8.466;2023-03-09T07:39:12;9.50;99.90
12460;DHT22;6295;49.452;8.466;2023-03-09T07:43:14;9.50;99.90
12460;DHT22;6295;49.452;8.466;2023-03-09T07:47:18;9.60;99.90
12460;DHT22;6295;49.452;8.466;2023-03-09T07:51:20;9.60;99.90
12460;DHT22;6295;49.452;8.466;2023-03-09T07:59:26;9.60;99.90
12460;DHT22;6295;49.452;8.466;2023-03-09T08:07:36;9.60;99.90
12460;DHT22;6295;49.452;8.466;2023-03-09T08:11:38;9.70;99.90
12460;DHT22;6295;49.452;8.466;2023-03-09T08:19:44;9.70;99.90
12460;DHT22;6295;49.452;8.466;2023-03-09T08:23:46;9.80;99.90
12460;DHT22;6295;49.452;8.466;2023-03-09T08:27:49;9.80;99.90
12460;DHT22;6295;49.452;8.466;2023-03-09T08:31:52;9.80;99.90
12460;DHT22;6295;49.452;8.466;2023-03-09T08:35:55;9.80;99.90
12460;DHT22;6295;49.452;8.466;2023-03-09T08:52:06;9.90;99.90
12460;DHT22;6295;49.452;8.466;2023-03-09T08:56:10;9.90;99.90
12460;DHT22;6295;49.452;8.466;2023-03-09T09:00:16;9.90;99.90
12460;DHT22;6295;49.452;8.466;2023-03-09T09:04:19;10.00;99.90
12460;DHT22;6295;49.452;8.466;2023-03-09T09:08:23;10.00;99.90
12460;DHT22;6295;49.452;8.466;2023-03-09T09:12:25;10.00;99.90
12460;DHT22;6295;49.452;8.466;2023-03-09T09:16:28;10.10;99.90
12460;DHT22;6295;49.452;8.466;2023-03-09T09:24:37;10.20;99.90
12460;DHT22;6295;49.452;8.466;2023-03-09T09:32:44;10.30;99.90
12460;DHT22;6295;49.452;8.466;2023-03-09T09:36:50;10.30;99.90
12460;DHT22;6295;49.452;8.466;2023-03-09T09:40:59;10.40;99.90
12460;DHT22;6295;49.452;8.466;2023-03-09T09:45:13;10.40;99.90
12460;DHT22;6295;49.452;8.466;2023-03-09T09:49:25;10.40;99.90
12460;DHT22;6295;49.452;8.466;2023-03-09T09:53:38;10.40;99.90
12460;DHT22;6295;49.452;8.466;2023-03-09T09:57:53;10.40;99.90
12460;DHT22;6295;49.452;8.466;2023-03-09T10:02:03;10.50;99.90
12460;DHT22;6295;49.452;8.466;2023-03-09T10:06:12;10.50;99.90
12460;DHT22;6295;49.452;8.466;2023-03-09T10:10:20;10.60;99.90
12460;DHT22;6295;49.452;8.466;2023-03-09T10:14:28;10.60;99.90
12460;DHT22;6295;49.452;8.466;2023-03-09T10:18:34;10.70;99.90
12460;DHT22;6295;49.452;8.466;2023-03-09T10:22:39;10.80;99.90
12460;DHT22;6295;49.452;8.466;2023-03-09T10:34:55;10.90;99.90
12460;DHT22;6295;49.452;8.466;2023-03-09T10:43:07;11.00;99.90
12460;DHT22;6295;49.452;8.466;2023-03-09T10:55:33;11.20;99.90
12460;DHT22;6295;49.452;8.466;2023-03-09T10:59:38;11.20;99.90
12460;DHT22;6295;49.452;8.466;2023-03-09T11:04:01;11.30;99.90
12460;DHT22;6295;49.452;8.466;2023-03-09T11:08:04;11.30;99.90
12460;DHT22;6295;49.452;8.466;2023-03-09T11:12:27;11.40;99.90
12460;DHT22;6295;49.452;8.466;2023-03-09T11:16:32;11.40;99.90
12460;DHT22;6295;49.452;8.466;2023-03-09T11:20:38;11.50;99.90
12460;DHT22;6295;49.452;8.466;2023-03-09T11:24:43;10.90;99.90
12460;DHT22;6295;49.452;8.466;2023-03-09T11:28:53;11.80;99.90
12460;DHT22;6295;49.452;8.466;2023-03-09T11:32:57;11.90;99.90
12460;DHT22;6295;49.452;8.466;2023-03-09T11:37:05;12.10;99.90
12460;DHT22;6295;49.452;8.466;2023-03-09T11:45:19;12.30;99.90
12460;DHT22;6295;49.452;8.466;2023-03-09T11:57:44;12.50;99.90
12460;DHT22;6295;49.452;8.466;2023-03-09T12:01:56;12.50;99.90
12460;DHT22;6295;49.452;8.466;2023-03-09T12:06:10;12.50;99.90
12460;DHT22;6295;49.452;8.466;2023-03-09T12:10:25;12.50;99.90
12460;DHT22;6295;49.452;8.466;2023-03-09T12:14:33;13.70;99.90
12460;DHT22;6295;49.452;8.466;2023-03-09T12:18:39;12.50;99.90
12460;DHT22;6295;49.452;8.466;2023-03-09T12:22:44;12.60;99.90
12460;DHT22;6295;49.452;8.466;2023-03-09T12:27:01;12.70;99.90
12460;DHT22;6295;49.452;8.466;2023-03-09T12:31:04;12.90;99.90
12460;DHT22;6295;49.452;8.466;2023-03-09T12:39:43;12.90;99.90
12460;DHT22;6295;49.452;8.466;2023-03-09T12:47:52;12.90;99.90
12460;DHT22;6295;49.452;8.466;2023-03-09T12:52:15;12.80;99.90
12460;DHT22;6295;49.452;8.466;2023-03-09T12:56:22;12.80;99.90
12460;DHT22;6295;49.452;8.466;2023-03-09T13:08:38;12.80;99.90
12460;DHT22;6295;49.452;8.466;2023-03-09T13:12:43;12.80;99.90
12460;DHT22;6295;49.452;8.466;2023-03-09T13:16:51;12.80;99.90
12460;DHT22;6295;49.452;8.466;2023-03-09T13:29:37;12.90;99.90
12460;DHT22;6295;49.452;8.466;2023-03-09T13:33:43;12.90;99.90
12460;DHT22;6295;49.452;8.466;2023-03-09T13:37:46;12.90;99.90
12460;DHT22;6295;49.452;8.466;2023-03-09T13:41:52;13.00;99.90
12460;DHT22;6295;49.452;8.466;2023-03-09T13:46:17;13.10;99.90
12460;DHT22;6295;49.452;8.466;2023-03-09T13:50:25;13.20;99.90
12460;DHT22;6295;49.452;8.466;2023-03-09T13:54:30;13.10;99.90
12460;DHT22;6295;49.452;8.466;2023-03-09T13:58:38;13.10;99.90
12460;DHT22;6295;49.452;8.466;2023-03-09T14:02:43;13.10;99.90
12460;DHT22;6295;49.452;8.466;2023-03-09T14:06:45;13.10;99.90
12460;DHT22;6295;49.452;8.466;2023-03-09T14:10:47;13.20;99.90
12460;DHT22;6295;49.452;8.466;2023-03-09T14:14:50;13.30;99.90
12460;DHT22;6295;49.452;8.466;2023-03-09T14:18:55;13.30;99.90
12460;DHT22;6295;49.452;8.466;2023-03-09T14:23:14;13.40;99.90
12460;DHT22;6295;49.452;8.466;2023-03-09T14:27:24;13.30;99.90
12460;DHT22;6295;49.452;8.466;2023-03-09T14:31:28;13.30;99.90
12460;DHT22;6295;49.452;8.466;2023-03-09T14:35:35;13.20;99.90
12460;DHT22;6295;49.452;8.466;2023-03-09T14:39:38;13.10;99.90
12460;DHT22;6295;49.452;8.466;2023-03-09T14:43:42;13.10;99.90
12460;DHT22;6295;49.452;8.466;2023-03-09T14:47:45;13.10;99.90
12460;DHT22;6295;49.452;8.466;2023-03-09T14:51:49;13.10;99.90
12460;DHT22;6295;49.452;8.466;2023-03-09T15:03:56;13.10;99.90
12460;DHT22;6295;49.452;8.466;2023-03-09T15:08:01;13.10;99.90
12460;DHT22;6295;49.452;8.466;2023-03-09T15:12:05;13.30;99.90
12460;DHT22;6295;49.452;8.466;2023-03-09T15:16:10;13.30;99.90
12460;DHT22;6295;49.452;8.466;2023-03-09T15:20:14;13.40;99.90
12460;DHT22;6295;49.452;8.466;2023-03-09T15:24:18;13.40;99.90
12460;DHT22;6295;49.452;8.466;2023-03-09T15:28:23;13.50;99.90
12460;DHT22;6295;49.452;8.466;2023-03-09T15:36:32;13.80;99.90
12460;DHT22;6295;49.452;8.466;2023-03-09T15:40:39;14.00;99.90
12460;DHT22;6295;49.452;8.466;2023-03-09T15:44:41;14.10;99.90
12460;DHT22;6295;49.452;8.466;2023-03-09T15:48:43;14.10;99.90
12460;DHT22;6295;49.452;8.466;2023-03-09T15:52:45;14.30;99.90
12460;DHT22;6295;49.452;8.466;2023-03-09T15:56:49;14.20;99.90
12460;DHT22;6295;49.452;8.466;2023-03-09T16:00:55;14.20;99.90
12460;DHT22;6295;49.452;8.466;2023-03-09T16:04:58;14.20;99.90
12460;DHT22;6295;49.452;8.466;2023-03-09T16:09:02;14.20;99.90
12460;DHT22;6295;49.452;8.466;2023-03-09T16:13:06;14.10;99.90
12460;DHT22;6295;49.452;8.466;2023-03-09T16:21:10;14.00;99.90
12460;DHT22;6295;49.452;8.466;2023-03-09T16:25:12;13.90;99.90
12460;DHT22;6295;49.452;8.466;2023-03-09T16:29:16;13.90;99.90
